createdAt,value
2022-10-23T00:01:44.355Z,6.45
2022-10-23T00:04:20.937Z,7.07
2022-10-23T00:06:49.414Z,5.85
2022-10-23T00:09:19.499Z,6.50
2022-10-23T00:11:48.198Z,6.70
2022-10-23T00:14:24.167Z,6.47
2022-10-23T00:16:51.677Z,7.20
2022-10-23T00:19:19.287Z,7.22
2022-10-23T00:21:47.024Z,7.15
2022-10-23T00:24:17.709Z,6.75
2022-10-23T00:26:46.994Z,7.70
2022-10-23T00:29:14.355Z,7.40
2022-10-23T00:31:41.933Z,7.60
2022-10-23T00:34:11.191Z,8.85
2022-10-23T00:36:39.788Z,7.85
2022-10-23T00:39:07.418Z,9.20
2022-10-23T00:41:34.771Z,7.97
2022-10-23T00:44:07.108Z,8.02
2022-10-23T00:46:35.813Z,8.55
2022-10-23T00:49:04.963Z,9.70
2022-10-23T00:51:40.977Z,9.40
2022-10-23T00:54:29.165Z,9.25
2022-10-23T00:57:02.308Z,8.88
2022-10-23T00:59:30.449Z,8.65
2022-10-23T01:01:59.065Z,9.55
2022-10-23T01:04:29.252Z,10.02
2022-10-23T01:07:20.434Z,9.25
2022-10-23T01:09:59.370Z,8.75
2022-10-23T01:12:40.990Z,9.50
2022-10-23T01:15:09.389Z,9.70
2022-10-23T01:17:46.607Z,9.73
2022-10-23T01:20:25.959Z,9.27
2022-10-23T01:23:28.286Z,9.93
2022-10-23T01:26:14.584Z,9.85
2022-10-23T01:29:18.375Z,8.52
2022-10-23T01:32:17.937Z,8.50
2022-10-23T01:34:51.876Z,9.02
2022-10-23T01:37:27.593Z,9.13
2022-10-23T01:40:09.378Z,8.75
2022-10-23T01:42:42.393Z,9.25
2022-10-23T01:45:18.376Z,10.32
2022-10-23T01:47:49.518Z,11.43
2022-10-23T01:50:21.508Z,10.70
2022-10-23T01:52:53.869Z,11.32
2022-10-23T01:55:22.566Z,10.32
2022-10-23T01:57:52.030Z,9.75
2022-10-23T02:00:20.863Z,10.73
2022-10-23T02:02:56.078Z,10.73
2022-10-23T02:05:32.532Z,10.20
2022-10-23T02:08:05.662Z,9.73
2022-10-23T02:11:07.248Z,9.57
2022-10-23T02:13:43.019Z,9.88
2022-10-23T02:16:21.477Z,12.13
2022-10-23T02:19:12.504Z,11.68
2022-10-23T02:21:54.453Z,11.98
2022-10-23T02:24:48.196Z,11.23
2022-10-23T02:27:37.649Z,11.48
2022-10-23T02:30:16.584Z,13.25
2022-10-23T02:32:52.758Z,11.52
2022-10-23T02:35:24.828Z,12.38
2022-10-23T02:38:02.234Z,11.70
2022-10-23T02:40:41.301Z,11.40
2022-10-23T02:43:29.412Z,11.10
2022-10-23T02:46:17.498Z,9.90
2022-10-23T02:49:17.924Z,10.60
2022-10-23T02:51:58.238Z,10.90
2022-10-23T02:54:34.237Z,10.15
2022-10-23T02:57:37.873Z,12.25
2022-10-23T03:00:08.088Z,14.40
2022-10-23T03:02:44.991Z,12.68
2022-10-23T03:05:20.561Z,12.23
2022-10-23T03:07:49.175Z,13.23
2022-10-23T03:10:21.038Z,12.13
2022-10-23T03:12:53.913Z,11.20
2022-10-23T03:15:23.347Z,11.45
2022-10-23T03:17:51.961Z,11.20
2022-10-23T03:20:23.576Z,11.43
2022-10-23T03:25:19.396Z,11.30
2022-10-23T03:27:46.804Z,12.18
2022-10-23T03:30:16.420Z,10.25
2022-10-23T03:32:44.585Z,9.27
2022-10-23T03:35:11.919Z,9.88
2022-10-23T03:37:40.581Z,10.10
2022-10-23T03:40:08.641Z,9.07
2022-10-23T03:42:36.103Z,10.30
2022-10-23T03:45:03.891Z,9.85
2022-10-23T03:47:32.236Z,9.93
2022-10-23T03:50:01.605Z,11.30
2022-10-23T03:52:31.123Z,10.05
2022-10-23T03:54:59.536Z,10.70
2022-10-23T03:57:26.715Z,17.58
2022-10-23T03:59:53.860Z,11.02
2022-10-23T04:02:21.164Z,11.70
2022-10-23T04:04:48.958Z,10.77
2022-10-23T04:07:16.471Z,12.95
2022-10-23T04:09:43.710Z,10.52
2022-10-23T04:12:15.980Z,10.82
2022-10-23T04:14:43.276Z,9.63
2022-10-23T04:17:10.517Z,10.60
2022-10-23T04:19:37.918Z,9.95
2022-10-23T04:22:05.109Z,10.50
2022-10-23T04:24:33.827Z,11.35
2022-10-23T04:27:02.068Z,10.85
2022-10-23T04:29:32.505Z,11.45
2022-10-23T04:31:59.613Z,10.60
2022-10-23T04:34:28.725Z,11.32
2022-10-23T04:36:56.932Z,11.43
2022-10-23T04:39:24.119Z,10.40
2022-10-23T04:41:51.473Z,10.70
2022-10-23T04:44:20.205Z,12.25
2022-10-23T04:46:47.431Z,15.45
2022-10-23T04:49:15.628Z,11.45
2022-10-23T04:52:05.921Z,11.93
2022-10-23T04:54:51.849Z,10.13
2022-10-23T04:57:38.038Z,10.43
2022-10-23T05:00:10.512Z,11.00
2022-10-23T05:02:47.730Z,10.80
2022-10-23T05:05:17.354Z,12.10
2022-10-23T05:07:56.789Z,13.95
2022-10-23T05:10:30.329Z,11.20
2022-10-23T05:13:12.607Z,11.63
2022-10-23T05:15:41.063Z,11.23
2022-10-23T05:18:31.516Z,11.95
2022-10-23T05:21:14.328Z,11.07
2022-10-23T05:23:45.251Z,11.30
2022-10-23T05:26:15.749Z,10.68
2022-10-23T05:28:47.041Z,11.52
2022-10-23T05:31:21.437Z,11.52
2022-10-23T05:33:52.091Z,12.07
2022-10-23T05:36:22.601Z,10.90
2022-10-23T05:38:58.645Z,11.50
2022-10-23T05:41:26.905Z,11.32
2022-10-23T05:43:58.042Z,9.68
2022-10-23T05:46:44.425Z,10.88
2022-10-23T05:49:31.864Z,12.25
2022-10-23T05:52:12.268Z,10.05
2022-10-23T05:54:52.380Z,11.43
2022-10-23T05:57:58.835Z,10.88
2022-10-23T06:00:46.287Z,12.02
2022-10-23T06:03:33.836Z,11.15
2022-10-23T06:06:01.792Z,14.15
2022-10-23T06:08:40.148Z,13.00
2022-10-23T06:11:13.215Z,14.55
2022-10-23T06:13:43.875Z,14.90
2022-10-23T06:16:16.591Z,14.68
2022-10-23T06:18:44.413Z,12.48
2022-10-23T06:21:15.704Z,13.88
2022-10-23T06:23:46.813Z,14.43
2022-10-23T06:26:31.892Z,14.20
2022-10-23T06:29:10.187Z,18.92
2022-10-23T06:31:38.981Z,13.13
2022-10-23T06:34:06.503Z,14.70
2022-10-23T06:36:33.866Z,12.82
2022-10-23T06:39:13.423Z,14.73
2022-10-23T06:42:01.191Z,13.73
2022-10-23T06:44:54.087Z,13.73
2022-10-23T06:47:41.392Z,15.50
2022-10-23T06:50:31.020Z,17.02
2022-10-23T06:53:00.232Z,16.17
2022-10-23T06:55:30.631Z,18.35
2022-10-23T06:57:58.446Z,20.27
2022-10-23T07:00:26.105Z,17.77
2022-10-23T07:02:54.643Z,20.33
2022-10-23T07:05:23.001Z,18.45
2022-10-23T07:07:50.224Z,19.40
2022-10-23T07:10:33.212Z,16.50
2022-10-23T07:13:01.505Z,17.88
2022-10-23T07:15:39.062Z,18.30
2022-10-23T07:18:14.779Z,18.50
2022-10-23T07:21:00.670Z,20.52
2022-10-23T07:23:30.003Z,18.63
2022-10-23T07:26:07.029Z,17.70
2022-10-23T07:28:35.327Z,18.23
2022-10-23T07:31:03.143Z,17.35
2022-10-23T07:33:52.474Z,18.92
2022-10-23T07:36:21.344Z,18.58
2022-10-23T07:38:48.796Z,17.77
2022-10-23T07:41:17.446Z,16.13
2022-10-23T07:43:45.403Z,17.95
2022-10-23T07:46:21.848Z,16.73
2022-10-23T07:48:49.510Z,16.67
2022-10-23T07:51:19.162Z,14.80
2022-10-23T07:53:51.262Z,16.08
2022-10-23T07:56:32.123Z,15.63
2022-10-23T07:59:19.849Z,16.63
2022-10-23T08:01:55.962Z,16.85
2022-10-23T08:04:28.830Z,15.55
2022-10-23T08:07:03.893Z,17.65
2022-10-23T08:09:38.496Z,16.98
2022-10-23T08:12:06.832Z,16.08
2022-10-23T08:14:35.922Z,16.52
2022-10-23T08:17:05.516Z,16.38
2022-10-23T08:19:51.657Z,15.27
2022-10-23T08:22:23.625Z,15.13
2022-10-23T08:24:51.125Z,16.15
2022-10-23T08:27:20.113Z,15.90
2022-10-23T08:29:49.745Z,15.30
2022-10-23T08:32:17.350Z,15.15
2022-10-23T08:35:05.147Z,16.33
2022-10-23T08:37:34.077Z,15.50
2022-10-23T08:40:01.692Z,15.75
2022-10-23T08:43:10.965Z,15.43
2022-10-23T08:45:51.244Z,15.15
2022-10-23T08:48:41.927Z,14.50
2022-10-23T08:51:40.181Z,16.05
2022-10-23T08:54:31.585Z,14.60
2022-10-23T08:57:04.075Z,16.85
2022-10-23T08:59:40.232Z,19.75
2022-10-23T09:02:32.437Z,17.55
2022-10-23T09:04:59.957Z,16.88
2022-10-23T09:08:07.782Z,14.63
2022-10-23T09:10:42.694Z,14.40
2022-10-23T09:13:31.637Z,15.18
2022-10-23T09:16:20.363Z,14.35
2022-10-23T09:18:49.786Z,13.50
2022-10-23T09:21:17.270Z,12.85
2022-10-23T09:23:44.953Z,12.73
2022-10-23T09:26:17.488Z,13.05
2022-10-23T09:28:55.458Z,12.68
2022-10-23T09:31:24.021Z,12.77
2022-10-23T09:34:01.427Z,12.30
2022-10-23T09:36:31.006Z,12.38
2022-10-23T09:39:00.417Z,11.85
2022-10-23T09:41:40.505Z,12.02
2022-10-23T09:44:07.670Z,11.65
2022-10-23T09:46:44.120Z,11.32
2022-10-23T09:49:22.118Z,11.02
2022-10-23T09:52:08.643Z,11.02
2022-10-23T09:54:57.608Z,10.27
2022-10-23T09:57:45.366Z,10.70
2022-10-23T10:00:20.329Z,10.65
2022-10-23T10:03:05.212Z,10.82
2022-10-23T10:05:37.383Z,9.93
2022-10-23T10:08:20.540Z,8.82
2022-10-23T10:10:55.152Z,9.35
2022-10-23T10:13:39.687Z,9.05
2022-10-23T10:16:19.896Z,9.65
2022-10-23T10:19:03.531Z,9.45
2022-10-23T10:21:56.821Z,8.80
2022-10-23T10:24:34.766Z,8.88
2022-10-23T10:27:11.094Z,9.07
2022-10-23T10:30:08.337Z,9.70
2022-10-23T10:32:59.266Z,8.60
2022-10-23T10:35:40.240Z,10.73
2022-10-23T10:38:28.519Z,8.55
2022-10-23T10:41:35.555Z,9.57
2022-10-23T10:44:30.783Z,8.48
2022-10-23T10:47:20.153Z,8.52
2022-10-23T10:50:11.777Z,8.18
2022-10-23T10:53:07.444Z,7.95
2022-10-23T10:55:44.963Z,7.40
2022-10-23T10:58:30.517Z,7.55
2022-10-23T11:01:00.787Z,6.68
2022-10-23T11:03:52.604Z,6.45
2022-10-23T11:06:26.403Z,5.88
2022-10-23T11:09:15.617Z,6.45
2022-10-23T11:11:42.185Z,6.38
2022-10-23T11:14:27.001Z,6.60
2022-10-23T11:17:06.127Z,5.80
2022-10-23T11:19:53.626Z,6.13
2022-10-23T11:22:47.414Z,5.93
2022-10-23T11:25:44.862Z,5.32
2022-10-23T11:28:18.390Z,6.10
2022-10-23T11:30:55.190Z,5.57
2022-10-23T11:33:34.827Z,5.82
2022-10-23T11:36:20.715Z,5.85
2022-10-23T11:38:50.980Z,5.28
2022-10-23T11:41:27.465Z,5.30
2022-10-23T11:44:05.712Z,4.80
2022-10-23T11:46:36.940Z,4.95
2022-10-23T11:49:09.455Z,4.72
2022-10-23T11:51:42.804Z,3.88
2022-10-23T11:54:14.759Z,4.38
2022-10-23T11:56:55.578Z,4.22
2022-10-23T11:59:34.823Z,4.50
2022-10-23T12:02:18.185Z,3.55
2022-10-23T12:04:52.445Z,4.20
2022-10-23T12:07:37.496Z,4.25
2022-10-23T12:10:06.299Z,4.38
2022-10-23T12:12:41.209Z,4.00
2022-10-23T12:15:15.816Z,3.72
2022-10-23T12:17:45.369Z,3.72
2022-10-23T12:20:51.938Z,3.72
2022-10-23T12:23:28.441Z,3.60
2022-10-23T12:26:20.858Z,3.42
2022-10-23T12:28:58.805Z,3.88
2022-10-23T12:31:28.119Z,3.47
2022-10-23T12:34:25.280Z,2.90
2022-10-23T12:37:15.888Z,3.22
2022-10-23T12:39:58.074Z,2.92
2022-10-23T12:42:28.877Z,3.20
2022-10-23T12:45:17.366Z,3.53
2022-10-23T12:47:52.929Z,3.78
2022-10-23T12:50:28.766Z,6.47
2022-10-23T12:53:08.741Z,3.03
2022-10-23T12:58:35.918Z,3.45
2022-10-23T13:01:33.018Z,3.25
2022-10-23T13:04:21.569Z,3.80
2022-10-23T13:06:54.784Z,3.85
2022-10-23T13:09:42.449Z,3.40
2022-10-23T13:15:14.583Z,3.42
2022-10-23T13:17:46.060Z,3.75
2022-10-23T13:20:32.228Z,3.63
2022-10-23T13:23:32.837Z,3.42
2022-10-23T13:26:34.117Z,3.08
2022-10-23T13:29:23.542Z,3.40
2022-10-23T13:31:59.310Z,2.85
2022-10-23T13:34:32.203Z,3.63
2022-10-23T13:41:55.928Z,3.40
2022-10-23T13:45:25.922Z,3.88
2022-10-23T13:52:36.307Z,3.28
2022-10-23T13:55:29.090Z,3.25
2022-10-23T13:58:01.876Z,3.15
2022-10-23T14:00:43.317Z,3.28
2022-10-23T14:03:24.183Z,3.92
2022-10-23T14:06:44.361Z,3.40
2022-10-23T14:09:19.492Z,3.42
2022-10-23T14:11:49.850Z,3.25
2022-10-23T14:14:25.888Z,3.22
2022-10-23T14:16:55.678Z,3.35
2022-10-23T14:19:24.144Z,3.92
2022-10-23T14:21:52.707Z,2.83
2022-10-23T14:24:20.385Z,2.90
2022-10-23T14:27:12.611Z,3.30
2022-10-23T14:29:40.765Z,3.00
2022-10-23T14:32:08.416Z,3.13
2022-10-23T14:34:40.753Z,3.80
2022-10-23T14:37:14.498Z,3.08
2022-10-23T14:39:50.189Z,3.33
2022-10-23T14:42:41.169Z,4.13
2022-10-23T14:45:21.342Z,3.03
2022-10-23T14:48:02.427Z,3.20
2022-10-23T14:50:44.327Z,3.30
2022-10-23T14:53:12.197Z,3.22
2022-10-23T14:55:45.173Z,2.95
2022-10-23T14:58:49.871Z,2.80
2022-10-23T15:01:27.096Z,2.53
2022-10-23T15:03:59.878Z,2.65
2022-10-23T15:06:33.158Z,2.50
2022-10-23T15:09:00.689Z,2.80
2022-10-23T15:11:43.366Z,3.58
2022-10-23T15:14:13.570Z,2.53
2022-10-23T15:16:59.032Z,2.75
2022-10-23T15:25:07.771Z,3.15
2022-10-23T15:28:05.378Z,3.33
2022-10-23T15:30:44.508Z,3.33
2022-10-23T15:33:23.204Z,3.50
2022-10-23T15:35:58.238Z,3.63
2022-10-23T15:38:26.304Z,3.13
2022-10-23T15:41:00.646Z,3.65
2022-10-23T15:43:28.132Z,2.72
2022-10-23T15:46:07.091Z,2.85
2022-10-23T15:48:36.858Z,3.28
2022-10-23T15:51:12.169Z,3.78
2022-10-23T15:53:40.266Z,2.85
2022-10-23T15:56:08.918Z,2.90
2022-10-23T15:58:39.613Z,3.10
2022-10-23T16:01:10.001Z,2.67
2022-10-23T16:03:40.687Z,3.28
2022-10-23T16:06:14.917Z,3.08
2022-10-23T16:09:00.018Z,3.17
2022-10-23T16:11:34.396Z,3.10
2022-10-23T16:14:10.471Z,2.92
2022-10-23T16:16:38.239Z,3.10
2022-10-23T16:19:17.045Z,2.60
2022-10-23T16:22:17.509Z,3.60
2022-10-23T16:25:09.639Z,3.13
2022-10-23T16:27:38.395Z,3.00
2022-10-23T16:30:24.236Z,2.70
2022-10-23T16:32:54.895Z,3.05
2022-10-23T16:35:37.448Z,3.25
2022-10-23T16:38:24.628Z,2.97
2022-10-23T16:40:55.349Z,2.70
2022-10-23T16:43:42.190Z,2.60
2022-10-23T16:46:36.208Z,3.10
2022-10-23T16:49:16.342Z,2.78
2022-10-23T16:51:51.535Z,3.17
2022-10-23T16:54:28.164Z,3.13
2022-10-23T16:57:20.057Z,3.15
2022-10-23T16:59:52.294Z,3.00
2022-10-23T17:02:46.686Z,2.80
2022-10-23T17:05:31.441Z,3.38
2022-10-23T17:08:20.362Z,2.83
2022-10-23T17:10:48.392Z,3.15
2022-10-23T17:13:16.073Z,2.90
2022-10-23T17:15:43.468Z,3.10
2022-10-23T17:18:21.159Z,3.50
2022-10-23T17:20:58.334Z,3.35
2022-10-23T17:23:28.452Z,3.03
2022-10-23T17:26:03.634Z,3.33
2022-10-23T17:28:32.391Z,4.00
2022-10-23T17:31:00.038Z,3.35
2022-10-23T17:33:34.890Z,3.10
2022-10-23T17:36:07.121Z,3.05
2022-10-23T17:38:38.106Z,3.20
2022-10-23T17:41:09.224Z,3.30
2022-10-23T17:43:41.651Z,3.10
2022-10-23T17:46:14.902Z,3.47
2022-10-23T17:49:03.669Z,3.55
2022-10-23T17:51:41.487Z,4.15
2022-10-23T17:54:14.680Z,3.80
2022-10-23T17:56:46.438Z,2.70
2022-10-23T17:59:17.789Z,3.78
2022-10-23T18:01:48.930Z,4.20
2022-10-23T18:04:22.913Z,5.50
2022-10-23T18:06:53.667Z,4.63
2022-10-23T18:09:31.186Z,5.25
2022-10-23T18:12:18.124Z,4.35
2022-10-23T18:14:51.133Z,3.22
2022-10-23T18:17:19.753Z,3.60
2022-10-23T18:19:51.008Z,3.33
2022-10-23T18:24:46.187Z,4.28
2022-10-23T18:27:15.695Z,3.80
2022-10-23T18:29:51.177Z,3.10
2022-10-23T18:32:19.606Z,3.05
2022-10-23T18:34:47.320Z,3.33
2022-10-23T18:37:20.825Z,3.67
2022-10-23T18:39:48.119Z,3.30
2022-10-23T18:42:18.995Z,3.90
2022-10-23T18:44:50.274Z,3.90
2022-10-23T18:47:20.959Z,3.70
2022-10-23T18:49:49.572Z,3.55
2022-10-23T18:52:20.980Z,3.55
2022-10-23T18:54:50.821Z,3.75
2022-10-23T18:57:22.641Z,4.28
2022-10-23T18:59:51.137Z,3.63
2022-10-23T19:02:19.174Z,3.83
2022-10-23T19:04:50.277Z,3.85
2022-10-23T19:07:17.770Z,4.05
2022-10-23T19:09:46.009Z,3.53
2022-10-23T19:14:42.198Z,3.47
2022-10-23T19:17:33.396Z,4.20
2022-10-23T19:20:15.278Z,3.85
2022-10-23T19:22:46.671Z,4.60
2022-10-23T19:25:18.502Z,4.37
2022-10-23T19:27:47.934Z,4.32
2022-10-23T19:30:19.353Z,4.65
2022-10-23T19:32:49.918Z,4.88
2022-10-23T19:35:19.536Z,4.75
2022-10-23T19:37:49.780Z,5.10
2022-10-23T19:40:18.428Z,4.70
2022-10-23T19:42:45.941Z,5.05
2022-10-23T19:45:23.415Z,5.15
2022-10-23T19:47:53.686Z,4.85
2022-10-23T19:50:22.318Z,4.82
2022-10-23T19:52:49.799Z,5.18
2022-10-23T19:55:20.490Z,4.35
2022-10-23T19:57:48.957Z,5.25
2022-10-23T20:00:19.532Z,4.63
2022-10-23T20:02:55.327Z,4.93
2022-10-23T20:05:23.138Z,4.82
2022-10-23T20:07:51.518Z,4.57
2022-10-23T20:10:21.834Z,5.10
2022-10-23T20:12:56.611Z,4.85
2022-10-23T20:15:29.742Z,4.50
2022-10-23T20:17:58.749Z,5.68
2022-10-23T20:20:26.040Z,4.65
2022-10-23T20:22:56.703Z,4.95
2022-10-23T20:25:24.469Z,4.40
2022-10-23T20:27:51.932Z,4.18
2022-10-23T20:30:19.926Z,4.95
2022-10-23T20:33:00.093Z,4.88
2022-10-23T20:35:27.766Z,4.97
2022-10-23T20:37:56.325Z,4.95
2022-10-23T20:40:23.642Z,5.55
2022-10-23T20:42:50.811Z,5.68
2022-10-23T20:45:18.301Z,5.80
2022-10-23T20:47:47.059Z,6.20
2022-10-23T20:50:14.512Z,5.60
2022-10-23T20:52:41.776Z,5.20
2022-10-23T20:55:09.423Z,5.32
2022-10-23T20:57:36.681Z,4.65
2022-10-23T21:00:05.770Z,5.25
2022-10-23T21:02:33.257Z,5.40
2022-10-23T21:05:00.573Z,5.30
2022-10-23T21:07:31.535Z,5.13
2022-10-23T21:09:59.169Z,4.68
2022-10-23T21:12:27.226Z,4.60
2022-10-23T21:14:58.123Z,5.70
2022-10-23T21:17:25.896Z,4.90
2022-10-23T21:19:53.298Z,5.32
2022-10-23T21:22:21.902Z,6.20
2022-10-23T21:24:50.192Z,5.10
2022-10-23T21:27:18.777Z,5.75
2022-10-23T21:29:46.470Z,4.90
2022-10-23T21:32:13.877Z,6.00
2022-10-23T21:34:41.224Z,6.45
2022-10-23T21:37:16.065Z,5.90
2022-10-23T21:39:44.288Z,5.35
2022-10-23T21:42:17.754Z,5.18
2022-10-23T21:44:45.386Z,5.78
2022-10-23T21:47:13.257Z,5.65
2022-10-23T21:49:40.480Z,4.55
2022-10-23T21:52:08.380Z,4.88
2022-10-23T21:54:36.040Z,5.15
2022-10-23T21:57:03.698Z,4.78
2022-10-23T21:59:35.920Z,4.43
2022-10-23T22:02:04.209Z,4.55
2022-10-23T22:04:34.635Z,4.00
2022-10-23T22:07:03.302Z,4.15
2022-10-23T22:09:31.841Z,4.57
2022-10-23T22:12:01.008Z,4.25
2022-10-23T22:14:31.380Z,4.25
2022-10-23T22:16:58.820Z,3.47
2022-10-23T22:19:26.860Z,4.25
2022-10-23T22:21:54.444Z,4.57
2022-10-23T22:24:27.453Z,4.32
2022-10-23T22:26:56.748Z,4.63
2022-10-23T22:29:27.493Z,4.10
2022-10-23T22:31:56.972Z,4.60
2022-10-23T22:37:18.124Z,3.92
2022-10-23T22:39:46.084Z,4.18
2022-10-23T22:42:18.058Z,4.43
2022-10-23T22:44:46.369Z,4.88
2022-10-23T22:47:15.061Z,4.68
2022-10-23T22:49:42.829Z,4.28
2022-10-23T22:52:10.080Z,5.22
2022-10-23T22:54:39.310Z,5.15
2022-10-23T22:57:07.287Z,5.03
2022-10-23T22:59:43.063Z,5.05
2022-10-23T23:02:11.832Z,5.53
2022-10-23T23:04:45.467Z,5.82
2022-10-23T23:07:14.121Z,4.68
2022-10-23T23:09:44.631Z,5.95
2022-10-23T23:12:14.322Z,5.43
2022-10-23T23:14:42.949Z,5.43
2022-10-23T23:17:10.870Z,6.20
2022-10-23T23:19:38.916Z,5.40
2022-10-23T23:22:07.198Z,5.57
2022-10-23T23:24:35.550Z,5.40
2022-10-23T23:27:03.204Z,5.22
2022-10-23T23:29:31.189Z,7.05
2022-10-23T23:31:58.445Z,4.95
2022-10-23T23:34:25.773Z,5.20
2022-10-23T23:36:54.445Z,4.70
2022-10-23T23:39:22.977Z,5.60
2022-10-23T23:41:51.315Z,6.03
2022-10-23T23:44:19.837Z,4.78
2022-10-23T23:46:47.027Z,5.03
2022-10-23T23:49:14.520Z,4.13
2022-10-23T23:51:42.360Z,3.92
2022-10-23T23:54:09.836Z,3.85
2022-10-23T23:56:37.397Z,3.53
2022-10-23T23:59:07.779Z,3.47
